sensor_id;sensor_type;location;lat;lon;timestamp;temperature;humidity
9057;DHT22;4563;54.756;9.400;2022-09-04T00:01:44;20.30;56.80
9057;DHT22;4563;54.756;9.400;2022-09-04T00:04:23;20.30;56.90
9057;DHT22;4563;54.756;9.400;2022-09-04T00:06:59;20.30;56.90
9057;DHT22;4563;54.756;9.400;2022-09-04T00:09:36;20.30;57.00
9057;DHT22;4563;54.756;9.400;2022-09-04T00:12:07;20.30;57.00
9057;DHT22;4563;54.756;9.400;2022-09-04T00:14:40;20.30;57.30
9057;DHT22;4563;54.756;9.400;2022-09-04T00:17:13;20.30;57.30
9057;DHT22;4563;54.756;9.400;2022-09-04T00:19:44;20.30;57.30
9057;DHT22;4563;54.756;9.400;2022-09-04T00:22:24;20.30;57.30
9057;DHT22;4563;54.756;9.400;2022-09-04T00:25:01;20.30;57.10
9057;DHT22;4563;54.756;9.400;2022-09-04T00:27:32;20.30;57.30
9057;DHT22;4563;54.756;9.400;2022-09-04T00:30:11;20.20;57.30
9057;DHT22;4563;54.756;9.400;2022-09-04T00:32:42;20.30;57.40
9057;DHT22;4563;54.756;9.400;2022-09-04T00:35:14;20.30;57.50
9057;DHT22;4563;54.756;9.400;2022-09-04T00:37:44;20.20;57.40
9057;DHT22;4563;54.756;9.400;2022-09-04T00:40:20;20.30;57.60
9057;DHT22;4563;54.756;9.400;2022-09-04T00:43:30;20.20;57.20
9057;DHT22;4563;54.756;9.400;2022-09-04T00:46:32;20.20;56.30
9057;DHT22;4563;54.756;9.400;2022-09-04T00:49:25;20.20;56.50
9057;DHT22;4563;54.756;9.400;2022-09-04T00:52:01;20.20;57.00
9057;DHT22;4563;54.756;9.400;2022-09-04T00:54:47;20.20;57.50
9057;DHT22;4563;54.756;9.400;2022-09-04T00:57:45;20.20;57.30
9057;DHT22;4563;54.756;9.400;2022-09-04T01:00:18;20.20;57.00
9057;DHT22;4563;54.756;9.400;2022-09-04T01:03:13;20.20;57.70
9057;DHT22;4563;54.756;9.400;2022-09-04T01:05:57;20.20;56.90
9057;DHT22;4563;54.756;9.400;2022-09-04T01:08:34;20.10;57.40
9057;DHT22;4563;54.756;9.400;2022-09-04T01:11:11;20.20;57.80
9057;DHT22;4563;54.756;9.400;2022-09-04T01:13:44;20.20;57.90
9057;DHT22;4563;54.756;9.400;2022-09-04T01:16:18;20.20;57.90
9057;DHT22;4563;54.756;9.400;2022-09-04T01:18:53;20.10;57.90
9057;DHT22;4563;54.756;9.400;2022-09-04T01:21:55;20.20;57.90
9057;DHT22;4563;54.756;9.400;2022-09-04T01:24:38;20.20;57.20
9057;DHT22;4563;54.756;9.400;2022-09-04T01:27:15;20.10;58.20
9057;DHT22;4563;54.756;9.400;2022-09-04T01:29:51;20.20;57.90
9057;DHT22;4563;54.756;9.400;2022-09-04T01:32:28;20.10;57.90
9057;DHT22;4563;54.756;9.400;2022-09-04T01:35:04;20.10;57.90
9057;DHT22;4563;54.756;9.400;2022-09-04T01:37:43;20.20;58.00
9057;DHT22;4563;54.756;9.400;2022-09-04T01:40:31;20.10;57.80
9057;DHT22;4563;54.756;9.400;2022-09-04T01:43:05;20.10;57.90
9057;DHT22;4563;54.756;9.400;2022-09-04T01:45:46;20.10;58.00
9057;DHT22;4563;54.756;9.400;2022-09-04T01:48:18;20.10;57.80
9057;DHT22;4563;54.756;9.400;2022-09-04T01:50:49;20.10;58.00
9057;DHT22;4563;54.756;9.400;2022-09-04T01:53:23;20.20;58.20
9057;DHT22;4563;54.756;9.400;2022-09-04T01:56:00;20.10;58.00
9057;DHT22;4563;54.756;9.400;2022-09-04T01:58:37;20.20;57.90
9057;DHT22;4563;54.756;9.400;2022-09-04T02:01:10;20.20;57.90
9057;DHT22;4563;54.756;9.400;2022-09-04T02:03:47;20.20;58.10
9057;DHT22;4563;54.756;9.400;2022-09-04T02:06:24;20.10;58.00
9057;DHT22;4563;54.756;9.400;2022-09-04T02:09:10;20.10;58.10
9057;DHT22;4563;54.756;9.400;2022-09-04T02:11:44;20.20;57.80
9057;DHT22;4563;54.756;9.400;2022-09-04T02:14:27;20.10;58.00
9057;DHT22;4563;54.756;9.400;2022-09-04T02:17:07;20.10;57.70
9057;DHT22;4563;54.756;9.400;2022-09-04T02:19:40;20.10;57.80
9057;DHT22;4563;54.756;9.400;2022-09-04T02:22:21;20.10;58.00
9057;DHT22;4563;54.756;9.400;2022-09-04T02:24:57;20.20;57.90
9057;DHT22;4563;54.756;9.400;2022-09-04T02:27:30;20.10;57.80
9057;DHT22;4563;54.756;9.400;2022-09-04T02:30:04;20.10;57.90
9057;DHT22;4563;54.756;9.400;2022-09-04T02:32:35;20.10;58.00
9057;DHT22;4563;54.756;9.400;2022-09-04T02:35:10;20.10;58.00
9057;DHT22;4563;54.756;9.400;2022-09-04T02:37:50;20.10;57.90
9057;DHT22;4563;54.756;9.400;2022-09-04T02:40:24;20.10;57.90
9057;DHT22;4563;54.756;9.400;2022-09-04T02:43:04;20.10;58.00
9057;DHT22;4563;54.756;9.400;2022-09-04T02:45:43;20.10;57.70
9057;DHT22;4563;54.756;9.400;2022-09-04T02:48:14;20.10;57.60
9057;DHT22;4563;54.756;9.400;2022-09-04T02:50:55;20.10;57.90
9057;DHT22;4563;54.756;9.400;2022-09-04T02:53:29;20.10;57.80
9057;DHT22;4563;54.756;9.400;2022-09-04T02:56:12;20.10;57.90
9057;DHT22;4563;54.756;9.400;2022-09-04T02:58:49;20.10;58.20
9057;DHT22;4563;54.756;9.400;2022-09-04T03:01:24;20.10;57.90
9057;DHT22;4563;54.756;9.400;2022-09-04T03:03:59;20.00;57.80
9057;DHT22;4563;54.756;9.400;2022-09-04T03:06:42;20.00;57.80
9057;DHT22;4563;54.756;9.400;2022-09-04T03:09:16;20.10;57.50
9057;DHT22;4563;54.756;9.400;2022-09-04T03:11:48;20.00;57.90
9057;DHT22;4563;54.756;9.400;2022-09-04T03:14:23;20.00;58.00
9057;DHT22;4563;54.756;9.400;2022-09-04T03:17:05;20.00;57.80
9057;DHT22;4563;54.756;9.400;2022-09-04T03:19:40;20.00;57.80
9057;DHT22;4563;54.756;9.400;2022-09-04T03:22:14;20.00;58.00
9057;DHT22;4563;54.756;9.400;2022-09-04T03:25:00;20.00;58.50
9057;DHT22;4563;54.756;9.400;2022-09-04T03:27:31;20.00;57.20
9057;DHT22;4563;54.756;9.400;2022-09-04T03:30:04;20.00;58.00
9057;DHT22;4563;54.756;9.400;2022-09-04T03:32:42;20.00;58.00
9057;DHT22;4563;54.756;9.400;2022-09-04T03:35:17;20.00;57.70
9057;DHT22;4563;54.756;9.400;2022-09-04T03:38:09;20.00;57.80
9057;DHT22;4563;54.756;9.400;2022-09-04T03:40:40;20.00;57.20
9057;DHT22;4563;54.756;9.400;2022-09-04T03:43:52;20.00;58.00
9057;DHT22;4563;54.756;9.400;2022-09-04T03:46:32;20.00;56.90
9057;DHT22;4563;54.756;9.400;2022-09-04T03:49:11;20.00;57.70
9057;DHT22;4563;54.756;9.400;2022-09-04T03:51:49;20.00;57.80
9057;DHT22;4563;54.756;9.400;2022-09-04T03:54:29;19.90;57.80
9057;DHT22;4563;54.756;9.400;2022-09-04T03:57:16;19.90;57.70
9057;DHT22;4563;54.756;9.400;2022-09-04T03:59:58;19.90;57.60
9057;DHT22;4563;54.756;9.400;2022-09-04T04:02:34;19.90;57.60
9057;DHT22;4563;54.756;9.400;2022-09-04T04:05:27;19.90;57.80
9057;DHT22;4563;54.756;9.400;2022-09-04T04:08:27;19.90;57.40
9057;DHT22;4563;54.756;9.400;2022-09-04T04:11:08;19.90;58.00
9057;DHT22;4563;54.756;9.400;2022-09-04T04:13:55;19.90;57.80
9057;DHT22;4563;54.756;9.400;2022-09-04T04:16:34;19.90;57.50
9057;DHT22;4563;54.756;9.400;2022-09-04T04:19:32;19.80;57.60
9057;DHT22;4563;54.756;9.400;2022-09-04T04:22:19;19.80;57.20
9057;DHT22;4563;54.756;9.400;2022-09-04T04:25:13;19.80;57.20
9057;DHT22;4563;54.756;9.400;2022-09-04T04:27:52;19.80;57.20
9057;DHT22;4563;54.756;9.400;2022-09-04T04:30:23;19.80;57.60
9057;DHT22;4563;54.756;9.400;2022-09-04T04:33:18;19.80;58.30
9057;DHT22;4563;54.756;9.400;2022-09-04T04:35:55;19.80;57.10
9057;DHT22;4563;54.756;9.400;2022-09-04T04:38:35;19.80;57.60
9057;DHT22;4563;54.756;9.400;2022-09-04T04:41:14;19.70;57.60
9057;DHT22;4563;54.756;9.400;2022-09-04T04:43:58;19.70;57.60
9057;DHT22;4563;54.756;9.400;2022-09-04T04:46:42;19.70;57.70
9057;DHT22;4563;54.756;9.400;2022-09-04T04:49:31;19.70;57.70
9057;DHT22;4563;54.756;9.400;2022-09-04T04:52:10;19.70;57.70
9057;DHT22;4563;54.756;9.400;2022-09-04T04:55:09;19.60;57.60
9057;DHT22;4563;54.756;9.400;2022-09-04T04:58:09;19.60;57.40
9057;DHT22;4563;54.756;9.400;2022-09-04T05:00:44;19.60;57.40
9057;DHT22;4563;54.756;9.400;2022-09-04T05:03:18;19.60;58.00
9057;DHT22;4563;54.756;9.400;2022-09-04T05:05:55;19.60;58.00
9057;DHT22;4563;54.756;9.400;2022-09-04T05:08:33;19.60;58.00
9057;DHT22;4563;54.756;9.400;2022-09-04T05:11:12;19.60;58.00
9057;DHT22;4563;54.756;9.400;2022-09-04T05:13:52;19.50;58.00
9057;DHT22;4563;54.756;9.400;2022-09-04T05:16:29;19.50;58.10
9057;DHT22;4563;54.756;9.400;2022-09-04T05:19:04;19.60;58.30
9057;DHT22;4563;54.756;9.400;2022-09-04T05:21:36;19.60;58.40
9057;DHT22;4563;54.756;9.400;2022-09-04T05:24:12;19.60;58.50
9057;DHT22;4563;54.756;9.400;2022-09-04T05:26:47;19.60;58.50
9057;DHT22;4563;54.756;9.400;2022-09-04T05:29:22;19.50;58.30
9057;DHT22;4563;54.756;9.400;2022-09-04T05:31:56;19.50;58.50
9057;DHT22;4563;54.756;9.400;2022-09-04T05:34:34;19.50;58.60
9057;DHT22;4563;54.756;9.400;2022-09-04T05:37:09;19.50;58.40
9057;DHT22;4563;54.756;9.400;2022-09-04T05:39:47;19.50;58.60
9057;DHT22;4563;54.756;9.400;2022-09-04T05:42:40;19.50;58.40
9057;DHT22;4563;54.756;9.400;2022-09-04T05:45:19;19.50;57.80
9057;DHT22;4563;54.756;9.400;2022-09-04T05:48:06;19.50;58.60
9057;DHT22;4563;54.756;9.400;2022-09-04T05:50:54;19.50;58.60
9057;DHT22;4563;54.756;9.400;2022-09-04T05:53:39;19.50;58.30
9057;DHT22;4563;54.756;9.400;2022-09-04T05:56:42;19.50;58.20
9057;DHT22;4563;54.756;9.400;2022-09-04T05:59:33;19.50;57.90
9057;DHT22;4563;54.756;9.400;2022-09-04T06:05:17;19.50;58.40
9057;DHT22;4563;54.756;9.400;2022-09-04T06:07:54;19.50;58.40
9057;DHT22;4563;54.756;9.400;2022-09-04T06:10:32;19.50;58.70
9057;DHT22;4563;54.756;9.400;2022-09-04T06:16:43;19.60;57.60
9057;DHT22;4563;54.756;9.400;2022-09-04T06:19:34;19.50;58.30
9057;DHT22;4563;54.756;9.400;2022-09-04T06:22:29;19.60;58.10
9057;DHT22;4563;54.756;9.400;2022-09-04T06:28:21;19.50;58.60
9057;DHT22;4563;54.756;9.400;2022-09-04T06:31:00;19.60;57.90
9057;DHT22;4563;54.756;9.400;2022-09-04T06:33:41;19.60;59.00
9057;DHT22;4563;54.756;9.400;2022-09-04T06:36:40;19.60;58.70
9057;DHT22;4563;54.756;9.400;2022-09-04T06:39:39;19.60;58.20
9057;DHT22;4563;54.756;9.400;2022-09-04T06:42:17;19.70;58.30
9057;DHT22;4563;54.756;9.400;2022-09-04T06:45:00;19.70;58.90
9057;DHT22;4563;54.756;9.400;2022-09-04T06:47:39;19.70;58.90
9057;DHT22;4563;54.756;9.400;2022-09-04T06:50:19;19.70;59.00
9057;DHT22;4563;54.756;9.400;2022-09-04T06:53:10;19.80;58.70
9057;DHT22;4563;54.756;9.400;2022-09-04T06:55:51;19.80;58.70
9057;DHT22;4563;54.756;9.400;2022-09-04T07:01:23;19.80;58.50
9057;DHT22;4563;54.756;9.400;2022-09-04T07:04:04;19.90;58.90
9057;DHT22;4563;54.756;9.400;2022-09-04T07:06:48;19.90;58.60
9057;DHT22;4563;54.756;9.400;2022-09-04T07:09:20;19.90;58.10
9057;DHT22;4563;54.756;9.400;2022-09-04T07:12:17;20.00;58.60
9057;DHT22;4563;54.756;9.400;2022-09-04T07:17:58;20.00;57.90
9057;DHT22;4563;54.756;9.400;2022-09-04T07:20:31;20.10;58.20
9057;DHT22;4563;54.756;9.400;2022-09-04T07:23:20;20.10;58.30
9057;DHT22;4563;54.756;9.400;2022-09-04T07:25:56;20.10;57.40
9057;DHT22;4563;54.756;9.400;2022-09-04T07:28:47;20.20;58.10
9057;DHT22;4563;54.756;9.400;2022-09-04T07:31:19;20.20;57.50
9057;DHT22;4563;54.756;9.400;2022-09-04T07:33:51;20.30;58.20
9057;DHT22;4563;54.756;9.400;2022-09-04T07:36:26;20.30;58.00
9057;DHT22;4563;54.756;9.400;2022-09-04T07:39:03;20.30;57.90
9057;DHT22;4563;54.756;9.400;2022-09-04T07:41:40;20.40;57.80
9057;DHT22;4563;54.756;9.400;2022-09-04T07:44:13;20.40;57.70
9057;DHT22;4563;54.756;9.400;2022-09-04T07:46:48;20.40;57.60
9057;DHT22;4563;54.756;9.400;2022-09-04T07:49:25;20.50;57.70
9057;DHT22;4563;54.756;9.400;2022-09-04T07:51:58;20.60;57.50
9057;DHT22;4563;54.756;9.400;2022-09-04T07:54:49;20.60;57.70
9057;DHT22;4563;54.756;9.400;2022-09-04T07:57:36;20.60;57.10
9057;DHT22;4563;54.756;9.400;2022-09-04T08:00:12;20.70;57.10
9057;DHT22;4563;54.756;9.400;2022-09-04T08:02:58;20.70;57.30
9057;DHT22;4563;54.756;9.400;2022-09-04T08:05:30;20.70;56.70
9057;DHT22;4563;54.756;9.400;2022-09-04T08:08:22;20.80;57.00
9057;DHT22;4563;54.756;9.400;2022-09-04T08:11:10;20.90;56.30
9057;DHT22;4563;54.756;9.400;2022-09-04T08:14:04;21.00;56.40
9057;DHT22;4563;54.756;9.400;2022-09-04T08:16:40;21.00;56.10
9057;DHT22;4563;54.756;9.400;2022-09-04T08:19:20;21.00;56.50
9057;DHT22;4563;54.756;9.400;2022-09-04T08:21:51;21.10;56.50
9057;DHT22;4563;54.756;9.400;2022-09-04T08:24:51;21.10;56.50
9057;DHT22;4563;54.756;9.400;2022-09-04T08:27:35;21.20;55.90
9057;DHT22;4563;54.756;9.400;2022-09-04T08:30:07;21.30;56.10
9057;DHT22;4563;54.756;9.400;2022-09-04T08:35:49;21.40;56.00
9057;DHT22;4563;54.756;9.400;2022-09-04T08:38:31;21.40;56.20
9057;DHT22;4563;54.756;9.400;2022-09-04T08:41:48;21.50;56.20
9057;DHT22;4563;54.756;9.400;2022-09-04T08:44:59;21.60;55.90
9057;DHT22;4563;54.756;9.400;2022-09-04T08:48:03;21.70;56.50
9057;DHT22;4563;54.756;9.400;2022-09-04T08:51:06;21.80;55.90
9057;DHT22;4563;54.756;9.400;2022-09-04T08:54:04;21.80;55.80
9057;DHT22;4563;54.756;9.400;2022-09-04T08:56:44;21.90;55.80
9057;DHT22;4563;54.756;9.400;2022-09-04T08:59:34;22.00;55.90
9057;DHT22;4563;54.756;9.400;2022-09-04T09:05:40;22.10;55.70
9057;DHT22;4563;54.756;9.400;2022-09-04T09:12:02;22.20;55.60
9057;DHT22;4563;54.756;9.400;2022-09-04T09:14:56;22.30;55.70
9057;DHT22;4563;54.756;9.400;2022-09-04T09:17:36;22.40;55.80
9057;DHT22;4563;54.756;9.400;2022-09-04T09:20:24;22.50;55.80
9057;DHT22;4563;54.756;9.400;2022-09-04T09:23:14;22.60;55.70
9057;DHT22;4563;54.756;9.400;2022-09-04T09:25:49;22.70;55.70
9057;DHT22;4563;54.756;9.400;2022-09-04T09:28:50;22.70;55.60
9057;DHT22;4563;54.756;9.400;2022-09-04T09:34:55;22.90;55.50
9057;DHT22;4563;54.756;9.400;2022-09-04T09:40:42;23.10;55.40
9057;DHT22;4563;54.756;9.400;2022-09-04T09:43:34;23.20;55.20
9057;DHT22;4563;54.756;9.400;2022-09-04T09:46:27;23.30;55.20
9057;DHT22;4563;54.756;9.400;2022-09-04T09:49:23;23.40;55.20
9057;DHT22;4563;54.756;9.400;2022-09-04T09:52:37;23.50;55.20
9057;DHT22;4563;54.756;9.400;2022-09-04T09:55:36;23.60;55.80
9057;DHT22;4563;54.756;9.400;2022-09-04T09:58:42;23.60;55.60
9057;DHT22;4563;54.756;9.400;2022-09-04T10:01:27;23.80;55.80
9057;DHT22;4563;54.756;9.400;2022-09-04T10:04:25;23.90;55.70
9057;DHT22;4563;54.756;9.400;2022-09-04T10:10:30;24.20;56.90
9057;DHT22;4563;54.756;9.400;2022-09-04T10:16:54;24.50;58.20
9057;DHT22;4563;54.756;9.400;2022-09-04T10:19:48;24.80;58.20
9057;DHT22;4563;54.756;9.400;2022-09-04T10:22:48;25.00;58.30
9057;DHT22;4563;54.756;9.400;2022-09-04T10:25:49;25.30;58.20
9057;DHT22;4563;54.756;9.400;2022-09-04T10:31:44;25.80;58.00
9057;DHT22;4563;54.756;9.400;2022-09-04T10:37:08;26.40;56.10
9057;DHT22;4563;54.756;9.400;2022-09-04T10:39:47;26.60;55.70
9057;DHT22;4563;54.756;9.400;2022-09-04T10:42:46;26.90;55.40
9057;DHT22;4563;54.756;9.400;2022-09-04T10:45:19;27.20;55.90
9057;DHT22;4563;54.756;9.400;2022-09-04T10:48:11;27.50;54.00
9057;DHT22;4563;54.756;9.400;2022-09-04T10:51:04;27.80;56.10
9057;DHT22;4563;54.756;9.400;2022-09-04T10:56:57;28.30;56.20
9057;DHT22;4563;54.756;9.400;2022-09-04T10:59:54;28.50;53.90
9057;DHT22;4563;54.756;9.400;2022-09-04T11:02:57;28.70;54.60
9057;DHT22;4563;54.756;9.400;2022-09-04T11:05:44;28.90;54.60
9057;DHT22;4563;54.756;9.400;2022-09-04T11:08:28;29.10;53.30
9057;DHT22;4563;54.756;9.400;2022-09-04T11:11:11;29.20;52.80
9057;DHT22;4563;54.756;9.400;2022-09-04T11:14:13;29.40;51.50
9057;DHT22;4563;54.756;9.400;2022-09-04T11:29:33;30.00;52.90
9057;DHT22;4563;54.756;9.400;2022-09-04T11:32:47;30.10;52.30
9057;DHT22;4563;54.756;9.400;2022-09-04T11:35:46;30.20;52.00
9057;DHT22;4563;54.756;9.400;2022-09-04T11:38:32;30.30;52.20
9057;DHT22;4563;54.756;9.400;2022-09-04T11:41:36;30.40;50.90
9057;DHT22;4563;54.756;9.400;2022-09-04T11:47:36;30.70;50.80
9057;DHT22;4563;54.756;9.400;2022-09-04T11:50:27;30.80;51.00
9057;DHT22;4563;54.756;9.400;2022-09-04T11:53:24;31.00;50.10
9057;DHT22;4563;54.756;9.400;2022-09-04T11:59:04;31.30;50.20
9057;DHT22;4563;54.756;9.400;2022-09-04T12:01:57;31.50;48.70
9057;DHT22;4563;54.756;9.400;2022-09-04T12:04:42;31.60;49.50
9057;DHT22;4563;54.756;9.400;2022-09-04T12:07:29;31.80;47.70
9057;DHT22;4563;54.756;9.400;2022-09-04T12:10:22;32.00;48.00
9057;DHT22;4563;54.756;9.400;2022-09-04T12:13:05;32.10;49.40
9057;DHT22;4563;54.756;9.400;2022-09-04T12:19:03;32.30;46.90
9057;DHT22;4563;54.756;9.400;2022-09-04T12:28:08;32.50;47.40
9057;DHT22;4563;54.756;9.400;2022-09-04T12:30:50;32.60;48.00
9057;DHT22;4563;54.756;9.400;2022-09-04T12:33:37;32.70;44.40
9057;DHT22;4563;54.756;9.400;2022-09-04T12:39:31;32.80;48.10
9057;DHT22;4563;54.756;9.400;2022-09-04T12:42:12;32.80;47.90
9057;DHT22;4563;54.756;9.400;2022-09-04T12:44:50;32.70;44.00
9057;DHT22;4563;54.756;9.400;2022-09-04T12:47:28;32.70;44.10
9057;DHT22;4563;54.756;9.400;2022-09-04T12:50:08;32.70;43.30
9057;DHT22;4563;54.756;9.400;2022-09-04T12:52:50;32.70;44.40
9057;DHT22;4563;54.756;9.400;2022-09-04T12:55:25;32.60;43.30
9057;DHT22;4563;54.756;9.400;2022-09-04T12:58:03;32.60;41.90
9057;DHT22;4563;54.756;9.400;2022-09-04T13:00:37;32.60;43.80
9057;DHT22;4563;54.756;9.400;2022-09-04T13:03:16;32.50;41.80
9057;DHT22;4563;54.756;9.400;2022-09-04T13:06:05;32.50;43.60
9057;DHT22;4563;54.756;9.400;2022-09-04T13:08:45;32.50;44.00
9057;DHT22;4563;54.756;9.400;2022-09-04T13:11:24;32.40;42.70
9057;DHT22;4563;54.756;9.400;2022-09-04T13:14:06;32.40;41.80
9057;DHT22;4563;54.756;9.400;2022-09-04T13:16:39;32.30;43.40
9057;DHT22;4563;54.756;9.400;2022-09-04T13:19:13;32.30;41.80
9057;DHT22;4563;54.756;9.400;2022-09-04T13:22:05;32.20;41.70
9057;DHT22;4563;54.756;9.400;2022-09-04T13:24:48;32.20;44.50
9057;DHT22;4563;54.756;9.400;2022-09-04T13:27:36;32.10;42.70
9057;DHT22;4563;54.756;9.400;2022-09-04T13:30:08;32.00;43.10
9057;DHT22;4563;54.756;9.400;2022-09-04T13:33:07;31.90;40.80
9057;DHT22;4563;54.756;9.400;2022-09-04T13:35:48;31.90;43.30
9057;DHT22;4563;54.756;9.400;2022-09-04T13:38:53;31.80;42.70
9057;DHT22;4563;54.756;9.400;2022-09-04T13:44:37;31.60;45.10
9057;DHT22;4563;54.756;9.400;2022-09-04T13:47:14;31.50;43.20
9057;DHT22;4563;54.756;9.400;2022-09-04T13:49:50;31.40;42.10
9057;DHT22;4563;54.756;9.400;2022-09-04T13:52:21;31.30;42.10
9057;DHT22;4563;54.756;9.400;2022-09-04T13:54:57;31.20;42.00
9057;DHT22;4563;54.756;9.400;2022-09-04T13:57:27;31.10;42.00
9057;DHT22;4563;54.756;9.400;2022-09-04T13:59:58;31.10;41.80
9057;DHT22;4563;54.756;9.400;2022-09-04T14:02:28;30.90;41.60
9057;DHT22;4563;54.756;9.400;2022-09-04T14:05:03;30.80;41.70
9057;DHT22;4563;54.756;9.400;2022-09-04T14:07:35;30.70;42.50
9057;DHT22;4563;54.756;9.400;2022-09-04T14:10:04;30.50;42.50
9057;DHT22;4563;54.756;9.400;2022-09-04T14:12:46;30.40;42.40
9057;DHT22;4563;54.756;9.400;2022-09-04T14:15:28;30.30;43.40
9057;DHT22;4563;54.756;9.400;2022-09-04T14:18:12;30.20;43.80
9057;DHT22;4563;54.756;9.400;2022-09-04T14:20:47;30.10;43.70
9057;DHT22;4563;54.756;9.400;2022-09-04T14:23:28;29.90;43.40
9057;DHT22;4563;54.756;9.400;2022-09-04T14:26:02;29.80;43.30
9057;DHT22;4563;54.756;9.400;2022-09-04T14:28:38;29.70;43.40
9057;DHT22;4563;54.756;9.400;2022-09-04T14:31:12;29.60;43.90
9057;DHT22;4563;54.756;9.400;2022-09-04T14:33:49;29.50;43.70
9057;DHT22;4563;54.756;9.400;2022-09-04T14:36:26;29.30;44.30
9057;DHT22;4563;54.756;9.400;2022-09-04T14:39:18;29.30;44.30
9057;DHT22;4563;54.756;9.400;2022-09-04T14:42:15;29.10;45.60
9057;DHT22;4563;54.756;9.400;2022-09-04T14:44:56;29.00;46.00
9057;DHT22;4563;54.756;9.400;2022-09-04T14:47:32;28.90;44.60
9057;DHT22;4563;54.756;9.400;2022-09-04T14:50:06;28.70;44.10
9057;DHT22;4563;54.756;9.400;2022-09-04T14:52:38;28.70;44.30
9057;DHT22;4563;54.756;9.400;2022-09-04T14:55:10;28.50;44.30
9057;DHT22;4563;54.756;9.400;2022-09-04T14:57:44;28.50;43.90
9057;DHT22;4563;54.756;9.400;2022-09-04T15:00:15;28.30;44.00
9057;DHT22;4563;54.756;9.400;2022-09-04T15:02:46;28.30;44.00
9057;DHT22;4563;54.756;9.400;2022-09-04T15:05:21;28.20;44.10
9057;DHT22;4563;54.756;9.400;2022-09-04T15:07:59;28.10;44.70
9057;DHT22;4563;54.756;9.400;2022-09-04T15:10:31;28.00;45.40
9057;DHT22;4563;54.756;9.400;2022-09-04T15:13:30;27.90;44.40
9057;DHT22;4563;54.756;9.400;2022-09-04T15:16:07;27.90;46.30
9057;DHT22;4563;54.756;9.400;2022-09-04T15:18:44;27.70;45.00
9057;DHT22;4563;54.756;9.400;2022-09-04T15:21:25;27.70;45.20
9057;DHT22;4563;54.756;9.400;2022-09-04T15:24:00;27.60;44.80
9057;DHT22;4563;54.756;9.400;2022-09-04T15:26:31;27.50;45.30
9057;DHT22;4563;54.756;9.400;2022-09-04T15:29:07;27.40;44.70
9057;DHT22;4563;54.756;9.400;2022-09-04T15:31:38;27.30;45.40
9057;DHT22;4563;54.756;9.400;2022-09-04T15:34:09;27.20;44.80
9057;DHT22;4563;54.756;9.400;2022-09-04T15:36:38;27.20;44.80
9057;DHT22;4563;54.756;9.400;2022-09-04T15:39:10;27.10;45.00
9057;DHT22;4563;54.756;9.400;2022-09-04T15:41:42;27.00;45.40
9057;DHT22;4563;54.756;9.400;2022-09-04T15:44:15;27.00;45.80
9057;DHT22;4563;54.756;9.400;2022-09-04T15:46:49;26.90;45.40
9057;DHT22;4563;54.756;9.400;2022-09-04T15:49:25;26.80;45.50
9057;DHT22;4563;54.756;9.400;2022-09-04T15:52:04;26.70;45.60
9057;DHT22;4563;54.756;9.400;2022-09-04T15:54:57;26.70;46.00
9057;DHT22;4563;54.756;9.400;2022-09-04T15:57:32;26.60;47.10
9057;DHT22;4563;54.756;9.400;2022-09-04T16:00:07;26.50;45.80
9057;DHT22;4563;54.756;9.400;2022-09-04T16:02:41;26.50;45.60
9057;DHT22;4563;54.756;9.400;2022-09-04T16:05:18;26.40;45.60
9057;DHT22;4563;54.756;9.400;2022-09-04T16:07:55;26.30;45.60
9057;DHT22;4563;54.756;9.400;2022-09-04T16:10:38;26.20;46.10
9057;DHT22;4563;54.756;9.400;2022-09-04T16:13:26;26.20;45.80
9057;DHT22;4563;54.756;9.400;2022-09-04T16:15:59;26.10;46.00
9057;DHT22;4563;54.756;9.400;2022-09-04T16:18:42;26.10;46.00
9057;DHT22;4563;54.756;9.400;2022-09-04T16:21:17;26.00;46.90
9057;DHT22;4563;54.756;9.400;2022-09-04T16:23:49;25.90;46.10
9057;DHT22;4563;54.756;9.400;2022-09-04T16:26:17;25.90;46.10
9057;DHT22;4563;54.756;9.400;2022-09-04T16:28:50;25.80;46.00
9057;DHT22;4563;54.756;9.400;2022-09-04T16:31:23;25.80;46.20
9057;DHT22;4563;54.756;9.400;2022-09-04T16:33:56;25.70;46.30
9057;DHT22;4563;54.756;9.400;2022-09-04T16:36:26;25.60;46.50
9057;DHT22;4563;54.756;9.400;2022-09-04T16:38:58;25.60;46.60
9057;DHT22;4563;54.756;9.400;2022-09-04T16:41:33;25.60;46.60
9057;DHT22;4563;54.756;9.400;2022-09-04T16:44:13;25.50;46.60
9057;DHT22;4563;54.756;9.400;2022-09-04T16:46:45;25.50;47.40
9057;DHT22;4563;54.756;9.400;2022-09-04T16:49:19;25.50;47.00
9057;DHT22;4563;54.756;9.400;2022-09-04T16:51:50;25.40;47.20
9057;DHT22;4563;54.756;9.400;2022-09-04T16:54:27;25.30;47.20
9057;DHT22;4563;54.756;9.400;2022-09-04T16:56:57;25.30;47.50
9057;DHT22;4563;54.756;9.400;2022-09-04T16:59:30;25.30;47.30
9057;DHT22;4563;54.756;9.400;2022-09-04T17:02:02;25.20;47.50
9057;DHT22;4563;54.756;9.400;2022-09-04T17:04:34;25.20;47.60
9057;DHT22;4563;54.756;9.400;2022-09-04T17:07:11;25.10;47.90
9057;DHT22;4563;54.756;9.400;2022-09-04T17:09:49;25.00;48.20
9057;DHT22;4563;54.756;9.400;2022-09-04T17:12:29;25.00;48.10
9057;DHT22;4563;54.756;9.400;2022-09-04T17:15:10;25.00;48.20
9057;DHT22;4563;54.756;9.400;2022-09-04T17:17:39;24.90;48.20
9057;DHT22;4563;54.756;9.400;2022-09-04T17:20:09;24.90;47.90
9057;DHT22;4563;54.756;9.400;2022-09-04T17:22:43;24.80;47.80
9057;DHT22;4563;54.756;9.400;2022-09-04T17:25:22;24.80;48.30
9057;DHT22;4563;54.756;9.400;2022-09-04T17:28:09;24.70;48.40
9057;DHT22;4563;54.756;9.400;2022-09-04T17:30:46;24.70;48.50
9057;DHT22;4563;54.756;9.400;2022-09-04T17:33:20;24.60;48.70
9057;DHT22;4563;54.756;9.400;2022-09-04T17:35:59;24.60;49.20
9057;DHT22;4563;54.756;9.400;2022-09-04T17:38:33;24.50;48.80
9057;DHT22;4563;54.756;9.400;2022-09-04T17:41:11;24.50;48.90
9057;DHT22;4563;54.756;9.400;2022-09-04T17:43:56;24.40;49.70
9057;DHT22;4563;54.756;9.400;2022-09-04T17:46:31;24.40;49.00
9057;DHT22;4563;54.756;9.400;2022-09-04T17:49:10;24.30;49.20
9057;DHT22;4563;54.756;9.400;2022-09-04T17:51:39;24.30;49.50
9057;DHT22;4563;54.756;9.400;2022-09-04T17:54:13;24.20;49.10
9057;DHT22;4563;54.756;9.400;2022-09-04T17:56:45;24.20;49.30
9057;DHT22;4563;54.756;9.400;2022-09-04T17:59:19;24.10;49.60
9057;DHT22;4563;54.756;9.400;2022-09-04T18:01:55;24.10;49.60
9057;DHT22;4563;54.756;9.400;2022-09-04T18:04:30;24.10;49.80
9057;DHT22;4563;54.756;9.400;2022-09-04T18:07:02;24.00;50.40
9057;DHT22;4563;54.756;9.400;2022-09-04T18:09:37;24.00;49.80
9057;DHT22;4563;54.756;9.400;2022-09-04T18:12:13;23.90;49.90
9057;DHT22;4563;54.756;9.400;2022-09-04T18:14:49;23.90;50.10
9057;DHT22;4563;54.756;9.400;2022-09-04T18:17:22;23.80;50.20
9057;DHT22;4563;54.756;9.400;2022-09-04T18:20:01;23.80;50.10
9057;DHT22;4563;54.756;9.400;2022-09-04T18:25:41;23.70;50.70
9057;DHT22;4563;54.756;9.400;2022-09-04T18:28:14;23.60;51.20
9057;DHT22;4563;54.756;9.400;2022-09-04T18:31:05;23.60;50.70
9057;DHT22;4563;54.756;9.400;2022-09-04T18:33:39;23.60;51.10
9057;DHT22;4563;54.756;9.400;2022-09-04T18:36:12;23.40;50.80
9057;DHT22;4563;54.756;9.400;2022-09-04T18:38:47;23.50;51.70
9057;DHT22;4563;54.756;9.400;2022-09-04T18:41:24;23.40;51.00
9057;DHT22;4563;54.756;9.400;2022-09-04T18:44:01;23.40;51.10
9057;DHT22;4563;54.756;9.400;2022-09-04T18:46:31;23.30;51.30
9057;DHT22;4563;54.756;9.400;2022-09-04T18:49:01;23.30;51.20
9057;DHT22;4563;54.756;9.400;2022-09-04T18:51:34;23.20;51.30
9057;DHT22;4563;54.756;9.400;2022-09-04T18:54:09;23.20;51.40
9057;DHT22;4563;54.756;9.400;2022-09-04T18:56:42;23.20;51.60